Puysegur Point, New Zealand
Current Conditions -  °F | °C
As of 4:00 PM on Thursday 18 Dec 2014 (Local Time) from NZCH Reporting Station
Clear Clear  
Wind Chill: 72°   Ceiling: Unl
Heat Index: 72°   Visibility: 6mi
Dew Point: 59°   Wind: 16mph
Humidity: 64%   Direction: 200°SSW
Pressure: 29.74"   Gusts: NA
Location:  46.16°S, 166.59°E
Report Text: NZCH 180400Z AUTO 20014KT 160V240 9999 NCD 22/15 Q1007 NOSIG
Loading
Personal Weather Stations






























Interactive Weather Map New forecast layout! Learn more

10-Day Weather Forecast

Advertisements
Track Severe Weather on mobile